Brookville, IN (47012)

6:08 PM EST on February 26, 2015 (GMT -0500)
Klemmes Corner | Change Station
CLOSE
Current Station
Personal Weather Station
Location: Brookville, IN
Elevation: 981 ft
Nearby Weather Stations
Active Advisory: Wind Chill Advisory

Elev 981 ft 39.35 °N, 85.00 °W | Updated 3 minutes ago

Overcast
Overcast
15.8 °F
Feels Like 8 °F
N
5.0
Wind Variable Wind from North
Gusts 5.0 mph

Today
High -- | Low -- °F
--% Chance of Precip.
Yesterday
High -- | Low -- °F
Precip. -- in
7:17 AM 6:28 PM
Waxing Gibbous, 63% visible
Pressure 30.25 in
Visibility 5.0 miles
Clouds Mostly Cloudy 4200 ft
Overcast 5000 ft
Windchill 8 °F
Dew Point 10 °F
Humidity 76%
Rainfall 0.00 in
Snow Depth Not available.
UV 0 out of 12
Pollen .60 out of 12
Air Quality Not available.
Flu Activity Not available.
METAR KHAO 262253Z AUTO 34011KT 5SM HZ BKN042 OVC050 M08/M13 A3021 RMK AO2 SNB13E53 SLP242 P0000 T10831128

More Conditions Fewer Conditions

Pressure 30.25 in
Visibility 5.0 miles
Clouds Mostly Cloudy 4200 ft
Overcast 5000 ft
Windchill 8 °F
Dew Point 10 °F
Humidity 76%
Rainfall 0.00 in
Snow Depth Not available.
UV 0 out of 12
Pollen .60 out of 12
Air Quality Not available.
Flu Activity Not available.
METAR KHAO 262253Z AUTO 34011KT 5SM HZ BKN042 OVC050 M08/M13 A3021 RMK AO2 SNB13E53 SLP242 P0000 T10831128

More Conditions Fewer Conditions

10-Day Weather Forecast

Almanac

Astronomy

Feb. 26, 2015 Rise Set
Actual Time
Civil Twilight
Nautical Twilight
Astronomical Twilight
Moon
Length of Visible Light
Length of Day
Tomorrow will be .
, % of the Moon is Illuminated

Today's Extremes

State Highs State Lows

Community

WunderPhotos

Upload Photos

1,800,517 photos uploaded!

WunderBlogs® & News

Nearby

Air Quality

  Air Quality AQ Index Pollutant
Not available.

Snow Depth

Station Depth Elevation

Earthquake Activity

City Distance Mag. Time & Date
Minimum magnitude displayed is 2.5.

Coastal Water Temperatures

Place Temperature

Nearby Weather Stations

Wind Chill Advisory
Statement as of 3:56 PM EST on February 26, 2015

... Wind Chill Advisory in effect from 8 PM this evening to 11 am
EST Friday...

The National Weather Service in Wilmington has issued a Wind
Chill Advisory... which is in effect from 8 PM this evening to
11 am EST Friday.

* Hazard types... cold wind chill readings.

* Wind chill readings... as low as 14 below.

* Impacts... the frigid conditions will be dangerous to those
venturing outside. Exposure may cause frostbite.

* Winds... north 5 to 10 mph.


Precautionary/preparedness actions...

A Wind Chill Advisory is issued when wind will combine with cold
temperatures to create dangerously cold conditions for exposed
skin. The wind will make it feel like it is between 10 and 24
degrees below zero for a period of several hours. Those planning
to venture outdoors should use common sense and dress warmly,
making sure that all exposed skin is covered.